createdAt,value
2019-02-25T02:13:28.594Z,99.90
2019-02-25T02:18:33.478Z,99.90
2019-02-25T02:23:39.800Z,99.90
2019-02-25T02:28:45.323Z,99.90
2019-02-25T02:44:01.069Z,99.90
2019-02-25T02:54:10.137Z,99.90
2019-02-25T02:59:14.846Z,99.90
2019-02-25T03:09:25.761Z,99.90
2019-02-25T03:14:30.510Z,99.90
2019-02-25T03:19:37.602Z,99.90
2019-02-25T03:24:43.187Z,99.90
2019-02-25T03:29:48.318Z,99.90
2019-02-25T03:34:53.605Z,99.90
2019-02-25T03:39:58.936Z,99.90
2019-02-25T03:55:15.187Z,99.90
2019-02-25T04:00:24.244Z,99.90
2019-02-25T04:05:30.100Z,99.90
2019-02-25T04:20:50.239Z,99.90
2019-02-25T04:31:00.683Z,99.90
2019-02-25T04:36:05.779Z,99.90
2019-02-25T04:41:11.093Z,99.90
2019-02-25T04:51:20.620Z,99.90
2019-02-25T04:56:26.308Z,99.90
2019-02-25T05:11:41.611Z,99.90
2019-02-25T05:21:51.158Z,99.90
2019-02-25T05:26:57.113Z,99.90
2019-02-25T05:32:02.192Z,99.90
2019-02-25T05:47:21.066Z,99.90
2019-02-25T05:52:27.160Z,99.90
2019-02-25T06:07:42.805Z,99.90
2019-02-25T06:22:59.383Z,99.90
2019-02-25T06:38:15.345Z,99.90
2019-02-25T06:53:30.752Z,99.90
2019-02-25T06:58:48.601Z,99.90
2019-02-25T07:04:12.159Z,99.90
2019-02-25T07:09:41.657Z,99.90
2019-02-25T07:15:00.430Z,99.90
2019-02-25T07:20:29.087Z,99.90
2019-02-25T07:25:52.696Z,99.90
2019-02-25T07:36:39.548Z,99.90
2019-02-25T07:42:14.213Z,99.90
2019-02-25T07:47:27.171Z,99.90
2019-02-25T07:52:38.159Z,99.90
2019-02-25T07:58:14.192Z,99.90
2019-02-25T08:03:41.654Z,99.90
2019-02-25T08:09:18.195Z,99.90
2019-02-25T08:14:43.641Z,99.90
2019-02-25T08:20:26.117Z,99.90
2019-02-25T08:31:15.159Z,99.90
2019-02-25T08:37:14.839Z,99.90
2019-02-25T08:42:44.469Z,99.90
2019-02-25T08:48:02.788Z,99.20
2019-02-25T08:53:14.463Z,98.90
2019-02-25T08:58:19.936Z,96.70
2019-02-25T09:03:25.917Z,96.10
2019-02-25T09:08:32.266Z,92.90
2019-02-25T09:13:39.868Z,91.00
2019-02-25T09:18:45.990Z,90.80
2019-02-25T09:23:50.863Z,90.20
2019-02-25T09:28:58.996Z,89.10
2019-02-25T09:34:06.106Z,86.50
2019-02-25T09:39:16.852Z,88.00
2019-02-25T09:44:22.038Z,88.30
2019-02-25T09:49:26.912Z,85.30
2019-02-25T09:54:31.785Z,83.10
2019-02-25T09:59:47.265Z,81.60
2019-02-25T10:04:52.370Z,82.90
2019-02-25T10:09:57.372Z,79.30
2019-02-25T10:15:02.249Z,79.00
2019-02-25T10:20:07.951Z,73.00
2019-02-25T10:25:12.877Z,77.40
2019-02-25T10:30:19.341Z,75.00
2019-02-25T10:35:25.006Z,69.80
2019-02-25T10:40:30.591Z,63.00
2019-02-25T10:45:39.485Z,66.60
2019-02-25T10:50:45.650Z,62.90
2019-02-25T10:55:59.184Z,69.40
2019-02-25T11:01:07.216Z,66.10
2019-02-25T11:06:11.941Z,69.20
2019-02-25T11:11:25.419Z,62.10
2019-02-25T11:16:29.985Z,65.00
2019-02-25T11:21:35.290Z,62.40
2019-02-25T11:26:44.246Z,57.30
2019-02-25T11:31:51.573Z,61.50
2019-02-25T11:36:57.776Z,57.40
2019-02-25T11:42:05.491Z,56.80
2019-02-25T11:47:11.525Z,59.20
2019-02-25T11:52:16.345Z,59.90
2019-02-25T11:57:21.223Z,57.40
2019-02-25T12:02:26.239Z,59.80
2019-02-25T12:07:32.994Z,59.40
2019-02-25T12:12:37.720Z,59.30
2019-02-25T12:17:42.854Z,60.70
2019-02-25T12:22:48.476Z,60.80
2019-02-25T12:27:53.320Z,58.40
2019-02-25T12:32:59.056Z,59.50
2019-02-25T12:38:03.835Z,57.40
2019-02-25T12:43:11.297Z,59.50
2019-02-25T12:48:24.609Z,59.40
2019-02-25T12:53:38.242Z,63.70
2019-02-25T12:58:49.689Z,60.90
2019-02-25T13:04:06.203Z,62.40
2019-02-25T13:09:25.416Z,58.30
2019-02-25T13:14:41.903Z,59.20
2019-02-25T13:19:42.382Z,60.20
2019-02-25T13:24:47.227Z,60.50
2019-02-25T13:29:52.057Z,58.50
2019-02-25T13:35:01.062Z,58.70
2019-02-25T13:40:09.346Z,58.10
2019-02-25T13:45:21.403Z,57.30
2019-02-25T13:50:34.697Z,60.50
2019-02-25T13:55:42.832Z,62.80
2019-02-25T14:00:51.665Z,60.20
2019-02-25T14:06:01.030Z,60.00
2019-02-25T14:11:19.629Z,58.30
2019-02-25T14:16:25.166Z,58.70
2019-02-25T14:21:34.523Z,58.60
2019-02-25T14:26:40.746Z,59.60
2019-02-25T14:31:45.766Z,59.10
2019-02-25T14:36:52.312Z,64.40
2019-02-25T14:42:11.917Z,66.20
2019-02-25T14:47:22.534Z,65.20
2019-02-25T14:52:32.492Z,69.10
2019-02-25T14:57:45.387Z,68.50
2019-02-25T15:02:54.879Z,70.20
2019-02-25T15:08:05.719Z,66.60
2019-02-25T15:13:19.366Z,65.40
2019-02-25T15:18:37.832Z,65.40
2019-02-25T15:23:48.437Z,61.60
2019-02-25T15:28:56.127Z,65.20
2019-02-25T15:34:00.353Z,64.00
2019-02-25T15:39:10.831Z,65.10
2019-02-25T15:44:21.247Z,66.90
2019-02-25T15:49:32.702Z,65.90
2019-02-25T15:54:43.620Z,66.10
2019-02-25T15:59:55.127Z,76.00
2019-02-25T16:05:27.441Z,78.30
2019-02-25T16:10:42.999Z,83.50
2019-02-25T16:15:53.192Z,83.00
2019-02-25T16:21:07.988Z,84.00
2019-02-25T17:17:12.598Z,88.70
2019-02-25T17:22:32.400Z,90.40
2019-02-25T17:27:37.934Z,88.30
2019-02-25T17:32:44.085Z,88.60
2019-02-25T17:37:49.702Z,87.90
2019-02-25T17:42:56.345Z,89.10
2019-02-25T17:48:05.411Z,89.70
2019-02-25T17:53:09.740Z,90.00
2019-02-25T17:58:15.611Z,90.40
2019-02-25T18:03:21.889Z,90.40
2019-02-25T18:08:28.769Z,91.30
2019-02-25T18:13:35.251Z,91.10
2019-02-25T18:18:41.330Z,91.30
2019-02-25T18:23:47.008Z,91.60
2019-02-25T18:28:52.665Z,91.80
2019-02-25T18:34:02.172Z,91.80
2019-02-25T18:39:15.521Z,92.30
2019-02-25T18:44:21.342Z,92.10
2019-02-25T18:49:27.863Z,92.10
2019-02-25T18:54:32.808Z,92.40
2019-02-25T18:59:37.824Z,92.50
2019-02-25T19:04:44.012Z,92.90
2019-02-25T19:09:51.628Z,93.10
2019-02-25T19:14:57.694Z,93.30
2019-02-25T19:20:04.171Z,92.70
2019-02-25T19:25:15.743Z,92.80
2019-02-25T19:30:22.123Z,93.50
2019-02-25T19:35:28.723Z,93.40
2019-02-25T19:40:33.856Z,93.40
2019-02-25T19:45:40.307Z,93.60
2019-02-25T19:50:51.362Z,93.60
2019-02-25T19:55:55.115Z,94.00
2019-02-25T20:01:01.164Z,94.40
2019-02-25T20:06:11.118Z,93.90
2019-02-25T20:11:13.125Z,94.70
2019-02-25T20:16:22.966Z,94.80
2019-02-25T20:21:30.924Z,94.40
2019-02-25T20:26:38.647Z,95.20
2019-02-25T20:31:43.535Z,95.50
2019-02-25T20:36:50.490Z,95.60
2019-02-25T20:41:57.067Z,95.40
2019-02-25T20:47:04.118Z,95.60
2019-02-25T20:52:10.236Z,96.00
2019-02-25T20:57:18.134Z,96.20
2019-02-25T21:02:23.164Z,96.10
2019-02-25T21:07:38.036Z,96.70
2019-02-25T21:12:43.122Z,97.80
2019-02-25T21:17:48.314Z,97.10
2019-02-25T21:22:57.354Z,97.80
2019-02-25T21:28:04.170Z,98.50
2019-02-25T21:33:08.568Z,99.40
2019-02-25T21:38:13.540Z,99.50
2019-02-25T21:43:18.699Z,98.80
2019-02-25T21:53:39.478Z,98.70
2019-02-25T21:58:46.634Z,99.10
2019-02-25T22:24:13.753Z,99.90
2019-02-25T22:44:34.792Z,99.90
2019-02-25T22:59:59.010Z,99.90
2019-02-25T23:20:18.768Z,99.90
2019-02-25T23:25:23.550Z,99.90
2019-02-25T23:40:42.761Z,99.90
2019-02-25T23:45:49.036Z,99.90
2019-02-25T23:50:57.202Z,99.90
2019-02-25T23:56:04.077Z,99.90
